sensor_id;sensor_type;location;lat;lon;timestamp;P1;durP1;ratioP1;P2;durP2;ratioP2
52940;SDS011;62001;53.366;6.636;2023-08-30T00:01:50;22.65;;;20.20;;
52940;SDS011;62001;53.366;6.636;2023-08-30T00:04:16;22.80;;;20.42;;
52940;SDS011;62001;53.366;6.636;2023-08-30T00:06:42;27.48;;;21.83;;
52940;SDS011;62001;53.366;6.636;2023-08-30T00:09:08;25.58;;;22.42;;
52940;SDS011;62001;53.366;6.636;2023-08-30T00:11:34;23.83;;;21.42;;
52940;SDS011;62001;53.366;6.636;2023-08-30T00:14:03;25.20;;;21.70;;
52940;SDS011;62001;53.366;6.636;2023-08-30T00:16:33;25.63;;;22.92;;
52940;SDS011;62001;53.366;6.636;2023-08-30T00:18:59;25.50;;;22.90;;
52940;SDS011;62001;53.366;6.636;2023-08-30T00:21:25;25.38;;;22.77;;
52940;SDS011;62001;53.366;6.636;2023-08-30T00:23:52;24.88;;;22.33;;
52940;SDS011;62001;53.366;6.636;2023-08-30T00:26:18;24.95;;;22.27;;
52940;SDS011;62001;53.366;6.636;2023-08-30T00:28:44;24.15;;;21.63;;
52940;SDS011;62001;53.366;6.636;2023-08-30T00:31:10;25.02;;;22.33;;
52940;SDS011;62001;53.366;6.636;2023-08-30T00:33:35;25.02;;;22.42;;
52940;SDS011;62001;53.366;6.636;2023-08-30T00:36:02;25.38;;;22.67;;
52940;SDS011;62001;53.366;6.636;2023-08-30T00:38:28;23.70;;;21.20;;
52940;SDS011;62001;53.366;6.636;2023-08-30T00:40:58;24.27;;;21.55;;
52940;SDS011;62001;53.366;6.636;2023-08-30T00:43:23;25.15;;;22.55;;
52940;SDS011;62001;53.366;6.636;2023-08-30T00:45:49;25.75;;;23.05;;
52940;SDS011;62001;53.366;6.636;2023-08-30T00:48:16;25.58;;;22.63;;
52940;SDS011;62001;53.366;6.636;2023-08-30T00:50:44;26.80;;;23.45;;
52940;SDS011;62001;53.366;6.636;2023-08-30T00:53:11;24.38;;;21.88;;
52940;SDS011;62001;53.366;6.636;2023-08-30T00:55:37;23.27;;;20.90;;
52940;SDS011;62001;53.366;6.636;2023-08-30T00:58:04;23.42;;;20.95;;
52940;SDS011;62001;53.366;6.636;2023-08-30T01:00:30;22.58;;;20.23;;
52940;SDS011;62001;53.366;6.636;2023-08-30T01:02:58;21.98;;;19.77;;
52940;SDS011;62001;53.366;6.636;2023-08-30T01:05:24;24.35;;;21.75;;
52940;SDS011;62001;53.366;6.636;2023-08-30T01:07:52;24.88;;;21.77;;
52940;SDS011;62001;53.366;6.636;2023-08-30T01:10:20;24.40;;;21.27;;
52940;SDS011;62001;53.366;6.636;2023-08-30T01:12:53;23.70;;;21.20;;
52940;SDS011;62001;53.366;6.636;2023-08-30T01:15:27;24.75;;;22.15;;
52940;SDS011;62001;53.366;6.636;2023-08-30T01:17:53;24.00;;;21.45;;
52940;SDS011;62001;53.366;6.636;2023-08-30T01:20:22;25.20;;;22.27;;
52940;SDS011;62001;53.366;6.636;2023-08-30T01:23:07;24.95;;;22.30;;
52940;SDS011;62001;53.366;6.636;2023-08-30T01:26:09;28.58;;;24.05;;
52940;SDS011;62001;53.366;6.636;2023-08-30T01:28:39;25.40;;;22.73;;
52940;SDS011;62001;53.366;6.636;2023-08-30T01:31:06;26.05;;;23.23;;
52940;SDS011;62001;53.366;6.636;2023-08-30T01:33:37;25.17;;;22.33;;
52940;SDS011;62001;53.366;6.636;2023-08-30T01:36:03;26.35;;;23.52;;
52940;SDS011;62001;53.366;6.636;2023-08-30T01:38:31;29.88;;;23.92;;
52940;SDS011;62001;53.366;6.636;2023-08-30T01:40:58;26.58;;;23.67;;
52940;SDS011;62001;53.366;6.636;2023-08-30T01:43:27;25.05;;;22.33;;
52940;SDS011;62001;53.366;6.636;2023-08-30T01:45:54;27.60;;;23.77;;
52940;SDS011;62001;53.366;6.636;2023-08-30T01:48:21;25.40;;;22.38;;
52940;SDS011;62001;53.366;6.636;2023-08-30T01:50:48;26.85;;;23.55;;
52940;SDS011;62001;53.366;6.636;2023-08-30T01:53:14;26.30;;;22.25;;
52940;SDS011;62001;53.366;6.636;2023-08-30T01:55:41;25.35;;;21.95;;
52940;SDS011;62001;53.366;6.636;2023-08-30T01:58:08;24.55;;;21.95;;
52940;SDS011;62001;53.366;6.636;2023-08-30T02:00:37;24.88;;;22.25;;
52940;SDS011;62001;53.366;6.636;2023-08-30T02:03:08;24.67;;;21.48;;
52940;SDS011;62001;53.366;6.636;2023-08-30T02:05:39;27.25;;;21.85;;
52940;SDS011;62001;53.366;6.636;2023-08-30T02:08:15;23.98;;;21.30;;
52940;SDS011;62001;53.366;6.636;2023-08-30T02:10:45;21.90;;;19.60;;
52940;SDS011;62001;53.366;6.636;2023-08-30T02:13:18;22.52;;;19.52;;
52940;SDS011;62001;53.366;6.636;2023-08-30T02:15:50;23.30;;;19.88;;
52940;SDS011;62001;53.366;6.636;2023-08-30T02:18:19;23.15;;;20.50;;
52940;SDS011;62001;53.366;6.636;2023-08-30T02:20:45;22.30;;;18.92;;
52940;SDS011;62001;53.366;6.636;2023-08-30T02:23:12;22.23;;;19.55;;
52940;SDS011;62001;53.366;6.636;2023-08-30T02:25:37;23.88;;;18.15;;
52940;SDS011;62001;53.366;6.636;2023-08-30T02:28:03;20.85;;;18.33;;
52940;SDS011;62001;53.366;6.636;2023-08-30T02:30:29;23.88;;;18.10;;
52940;SDS011;62001;53.366;6.636;2023-08-30T02:32:55;21.90;;;18.20;;
52940;SDS011;62001;53.366;6.636;2023-08-30T02:35:21;22.70;;;18.15;;
52940;SDS011;62001;53.366;6.636;2023-08-30T02:37:47;24.25;;;18.75;;
52940;SDS011;62001;53.366;6.636;2023-08-30T02:40:13;21.42;;;17.70;;
52940;SDS011;62001;53.366;6.636;2023-08-30T02:42:39;20.23;;;17.77;;
52940;SDS011;62001;53.366;6.636;2023-08-30T02:45:05;22.50;;;17.48;;
52940;SDS011;62001;53.366;6.636;2023-08-30T02:47:31;21.38;;;17.40;;
52940;SDS011;62001;53.366;6.636;2023-08-30T02:49:57;20.33;;;18.08;;
52940;SDS011;62001;53.366;6.636;2023-08-30T02:52:23;19.70;;;17.45;;
52940;SDS011;62001;53.366;6.636;2023-08-30T02:54:48;20.05;;;17.45;;
52940;SDS011;62001;53.366;6.636;2023-08-30T02:57:14;19.58;;;16.63;;
52940;SDS011;62001;53.366;6.636;2023-08-30T02:59:40;21.70;;;17.98;;
52940;SDS011;62001;53.366;6.636;2023-08-30T03:02:06;22.25;;;17.88;;
52940;SDS011;62001;53.366;6.636;2023-08-30T03:04:32;21.63;;;18.05;;
52940;SDS011;62001;53.366;6.636;2023-08-30T03:06:57;19.13;;;17.02;;
52940;SDS011;62001;53.366;6.636;2023-08-30T03:09:23;20.70;;;16.98;;
52940;SDS011;62001;53.366;6.636;2023-08-30T03:11:49;21.42;;;17.77;;
52940;SDS011;62001;53.366;6.636;2023-08-30T03:14:15;18.50;;;16.10;;
52940;SDS011;62001;53.366;6.636;2023-08-30T03:16:41;20.10;;;16.45;;
52940;SDS011;62001;53.366;6.636;2023-08-30T03:19:09;19.17;;;16.35;;
52940;SDS011;62001;53.366;6.636;2023-08-30T03:21:35;18.83;;;15.50;;
52940;SDS011;62001;53.366;6.636;2023-08-30T03:24:01;18.10;;;15.77;;
52940;SDS011;62001;53.366;6.636;2023-08-30T03:26:27;19.05;;;16.08;;
52940;SDS011;62001;53.366;6.636;2023-08-30T03:28:53;19.70;;;16.33;;
52940;SDS011;62001;53.366;6.636;2023-08-30T03:31:20;17.58;;;15.68;;
52940;SDS011;62001;53.366;6.636;2023-08-30T03:33:47;18.00;;;15.93;;
52940;SDS011;62001;53.366;6.636;2023-08-30T03:36:14;17.02;;;15.23;;
52940;SDS011;62001;53.366;6.636;2023-08-30T03:38:42;15.80;;;14.13;;
52940;SDS011;62001;53.366;6.636;2023-08-30T03:41:08;17.30;;;14.85;;
52940;SDS011;62001;53.366;6.636;2023-08-30T03:43:35;21.05;;;15.27;;
52940;SDS011;62001;53.366;6.636;2023-08-30T03:46:01;18.27;;;15.63;;
52940;SDS011;62001;53.366;6.636;2023-08-30T03:48:28;17.45;;;15.15;;
52940;SDS011;62001;53.366;6.636;2023-08-30T03:50:55;15.98;;;14.27;;
52940;SDS011;62001;53.366;6.636;2023-08-30T03:53:22;16.42;;;13.82;;
52940;SDS011;62001;53.366;6.636;2023-08-30T03:55:48;18.20;;;14.25;;
52940;SDS011;62001;53.366;6.636;2023-08-30T03:58:15;20.48;;;15.68;;
52940;SDS011;62001;53.366;6.636;2023-08-30T04:00:41;20.42;;;16.50;;
52940;SDS011;62001;53.366;6.636;2023-08-30T04:03:07;20.45;;;17.13;;
52940;SDS011;62001;53.366;6.636;2023-08-30T04:05:34;19.58;;;16.52;;
52940;SDS011;62001;53.366;6.636;2023-08-30T04:08:01;21.20;;;16.35;;
52940;SDS011;62001;53.366;6.636;2023-08-30T04:10:28;20.50;;;16.80;;
52940;SDS011;62001;53.366;6.636;2023-08-30T04:12:54;20.88;;;16.95;;
52940;SDS011;62001;53.366;6.636;2023-08-30T04:15:20;20.55;;;16.90;;
52940;SDS011;62001;53.366;6.636;2023-08-30T04:17:46;22.95;;;17.42;;
52940;SDS011;62001;53.366;6.636;2023-08-30T04:20:12;20.38;;;17.02;;
52940;SDS011;62001;53.366;6.636;2023-08-30T04:22:38;23.85;;;18.45;;
52940;SDS011;62001;53.366;6.636;2023-08-30T04:25:04;21.42;;;17.33;;
52940;SDS011;62001;53.366;6.636;2023-08-30T04:27:30;21.10;;;17.63;;
52940;SDS011;62001;53.366;6.636;2023-08-30T04:29:56;26.88;;;17.85;;
52940;SDS011;62001;53.366;6.636;2023-08-30T04:32:21;23.67;;;17.80;;
52940;SDS011;62001;53.366;6.636;2023-08-30T04:34:47;20.50;;;17.20;;
52940;SDS011;62001;53.366;6.636;2023-08-30T04:37:13;21.60;;;17.90;;
52940;SDS011;62001;53.366;6.636;2023-08-30T04:39:40;21.08;;;17.50;;
52940;SDS011;62001;53.366;6.636;2023-08-30T04:42:06;22.50;;;18.20;;
52940;SDS011;62001;53.366;6.636;2023-08-30T04:44:31;21.88;;;17.50;;
52940;SDS011;62001;53.366;6.636;2023-08-30T04:46:57;23.13;;;18.38;;
52940;SDS011;62001;53.366;6.636;2023-08-30T04:49:23;23.55;;;17.48;;
52940;SDS011;62001;53.366;6.636;2023-08-30T04:51:54;21.98;;;18.45;;
52940;SDS011;62001;53.366;6.636;2023-08-30T04:54:20;23.13;;;18.35;;
52940;SDS011;62001;53.366;6.636;2023-08-30T04:56:45;28.48;;;19.35;;
52940;SDS011;62001;53.366;6.636;2023-08-30T04:59:11;24.77;;;19.98;;
52940;SDS011;62001;53.366;6.636;2023-08-30T05:01:37;27.02;;;20.77;;
52940;SDS011;62001;53.366;6.636;2023-08-30T05:04:04;28.92;;;21.15;;
52940;SDS011;62001;53.366;6.636;2023-08-30T05:06:31;26.67;;;20.90;;
52940;SDS011;62001;53.366;6.636;2023-08-30T05:08:57;31.08;;;22.20;;
52940;SDS011;62001;53.366;6.636;2023-08-30T05:11:23;29.33;;;22.30;;
52940;SDS011;62001;53.366;6.636;2023-08-30T05:13:49;29.88;;;22.38;;
52940;SDS011;62001;53.366;6.636;2023-08-30T05:16:15;33.22;;;22.55;;
52940;SDS011;62001;53.366;6.636;2023-08-30T05:18:41;29.95;;;22.42;;
52940;SDS011;62001;53.366;6.636;2023-08-30T05:21:06;29.27;;;22.88;;
52940;SDS011;62001;53.366;6.636;2023-08-30T05:23:32;28.08;;;22.33;;
52940;SDS011;62001;53.366;6.636;2023-08-30T05:25:58;29.45;;;22.77;;
52940;SDS011;62001;53.366;6.636;2023-08-30T05:28:24;28.77;;;22.42;;
52940;SDS011;62001;53.366;6.636;2023-08-30T05:30:50;26.45;;;21.75;;
52940;SDS011;62001;53.366;6.636;2023-08-30T05:33:16;28.00;;;21.15;;
52940;SDS011;62001;53.366;6.636;2023-08-30T05:35:41;29.98;;;21.98;;
52940;SDS011;62001;53.366;6.636;2023-08-30T05:38:07;29.48;;;21.30;;
52940;SDS011;62001;53.366;6.636;2023-08-30T05:40:33;26.00;;;21.58;;
52940;SDS011;62001;53.366;6.636;2023-08-30T05:42:59;26.30;;;21.63;;
52940;SDS011;62001;53.366;6.636;2023-08-30T05:45:25;25.27;;;20.23;;
52940;SDS011;62001;53.366;6.636;2023-08-30T05:47:51;25.02;;;19.67;;
52940;SDS011;62001;53.366;6.636;2023-08-30T05:50:17;28.25;;;19.77;;
52940;SDS011;62001;53.366;6.636;2023-08-30T05:52:43;22.98;;;19.27;;
52940;SDS011;62001;53.366;6.636;2023-08-30T05:55:09;27.27;;;19.52;;
52940;SDS011;62001;53.366;6.636;2023-08-30T05:57:35;23.48;;;18.42;;
52940;SDS011;62001;53.366;6.636;2023-08-30T06:00:02;22.10;;;17.73;;
52940;SDS011;62001;53.366;6.636;2023-08-30T06:02:30;22.13;;;18.25;;
52940;SDS011;62001;53.366;6.636;2023-08-30T06:04:55;20.67;;;17.50;;
52940;SDS011;62001;53.366;6.636;2023-08-30T06:07:21;20.70;;;17.45;;
52940;SDS011;62001;53.366;6.636;2023-08-30T06:09:47;21.33;;;17.67;;
52940;SDS011;62001;53.366;6.636;2023-08-30T06:12:14;20.85;;;17.23;;
52940;SDS011;62001;53.366;6.636;2023-08-30T06:14:40;20.48;;;16.60;;
52940;SDS011;62001;53.366;6.636;2023-08-30T06:17:06;22.60;;;17.23;;
52940;SDS011;62001;53.366;6.636;2023-08-30T06:19:32;19.20;;;16.42;;
52940;SDS011;62001;53.366;6.636;2023-08-30T06:21:57;25.10;;;17.58;;
52940;SDS011;62001;53.366;6.636;2023-08-30T06:24:23;19.83;;;16.73;;
52940;SDS011;62001;53.366;6.636;2023-08-30T06:26:49;18.95;;;15.95;;
52940;SDS011;62001;53.366;6.636;2023-08-30T06:29:15;19.92;;;17.25;;
52940;SDS011;62001;53.366;6.636;2023-08-30T06:31:41;21.30;;;16.95;;
52940;SDS011;62001;53.366;6.636;2023-08-30T06:34:07;21.55;;;17.48;;
52940;SDS011;62001;53.366;6.636;2023-08-30T06:36:33;19.73;;;16.15;;
52940;SDS011;62001;53.366;6.636;2023-08-30T06:38:59;21.00;;;17.67;;
52940;SDS011;62001;53.366;6.636;2023-08-30T06:41:25;20.73;;;16.67;;
52940;SDS011;62001;53.366;6.636;2023-08-30T06:43:51;20.50;;;16.58;;
52940;SDS011;62001;53.366;6.636;2023-08-30T06:46:16;19.10;;;16.05;;
52940;SDS011;62001;53.366;6.636;2023-08-30T06:48:42;19.98;;;15.93;;
52940;SDS011;62001;53.366;6.636;2023-08-30T06:51:08;20.60;;;15.38;;
52940;SDS011;62001;53.366;6.636;2023-08-30T06:53:35;21.02;;;15.82;;
52940;SDS011;62001;53.366;6.636;2023-08-30T06:56:01;18.65;;;15.57;;
52940;SDS011;62001;53.366;6.636;2023-08-30T06:58:27;19.40;;;16.48;;
52940;SDS011;62001;53.366;6.636;2023-08-30T07:00:53;21.65;;;15.77;;
52940;SDS011;62001;53.366;6.636;2023-08-30T07:03:19;20.95;;;16.05;;
52940;SDS011;62001;53.366;6.636;2023-08-30T07:05:45;17.60;;;15.45;;
52940;SDS011;62001;53.366;6.636;2023-08-30T07:08:13;21.73;;;15.48;;
52940;SDS011;62001;53.366;6.636;2023-08-30T07:10:39;19.58;;;15.57;;
52940;SDS011;62001;53.366;6.636;2023-08-30T07:13:05;17.17;;;15.32;;
52940;SDS011;62001;53.366;6.636;2023-08-30T07:15:36;18.98;;;15.65;;
52940;SDS011;62001;53.366;6.636;2023-08-30T07:18:02;17.35;;;14.60;;
52940;SDS011;62001;53.366;6.636;2023-08-30T07:20:28;16.67;;;14.55;;
52940;SDS011;62001;53.366;6.636;2023-08-30T07:22:54;16.38;;;13.65;;
52940;SDS011;62001;53.366;6.636;2023-08-30T07:25:20;17.33;;;13.27;;
52940;SDS011;62001;53.366;6.636;2023-08-30T07:27:46;19.05;;;13.27;;
52940;SDS011;62001;53.366;6.636;2023-08-30T07:30:12;15.75;;;12.45;;
52940;SDS011;62001;53.366;6.636;2023-08-30T07:32:38;16.88;;;13.13;;
52940;SDS011;62001;53.366;6.636;2023-08-30T07:35:04;14.80;;;12.40;;
52940;SDS011;62001;53.366;6.636;2023-08-30T07:37:30;14.82;;;12.25;;
52940;SDS011;62001;53.366;6.636;2023-08-30T07:39:56;12.80;;;11.40;;
52940;SDS011;62001;53.366;6.636;2023-08-30T07:42:22;13.60;;;11.00;;
52940;SDS011;62001;53.366;6.636;2023-08-30T07:44:48;14.95;;;10.95;;
52940;SDS011;62001;53.366;6.636;2023-08-30T07:47:14;15.57;;;11.00;;
52940;SDS011;62001;53.366;6.636;2023-08-30T07:49:40;20.17;;;10.70;;
52940;SDS011;62001;53.366;6.636;2023-08-30T07:52:06;13.30;;;10.23;;
52940;SDS011;62001;53.366;6.636;2023-08-30T07:54:36;12.48;;;9.63;;
52940;SDS011;62001;53.366;6.636;2023-08-30T07:57:04;11.38;;;8.77;;
52940;SDS011;62001;53.366;6.636;2023-08-30T07:59:32;14.07;;;9.23;;
52940;SDS011;62001;53.366;6.636;2023-08-30T08:01:59;14.25;;;8.82;;
52940;SDS011;62001;53.366;6.636;2023-08-30T08:04:24;12.40;;;9.43;;
52940;SDS011;62001;53.366;6.636;2023-08-30T08:06:50;10.88;;;8.55;;
52940;SDS011;62001;53.366;6.636;2023-08-30T08:09:17;11.55;;;8.73;;
52940;SDS011;62001;53.366;6.636;2023-08-30T08:11:42;13.68;;;9.20;;
52940;SDS011;62001;53.366;6.636;2023-08-30T08:14:11;10.63;;;8.48;;
52940;SDS011;62001;53.366;6.636;2023-08-30T08:16:38;11.15;;;8.80;;
52940;SDS011;62001;53.366;6.636;2023-08-30T08:19:04;11.98;;;9.23;;
52940;SDS011;62001;53.366;6.636;2023-08-30T08:21:31;11.52;;;8.93;;
52940;SDS011;62001;53.366;6.636;2023-08-30T08:23:57;9.90;;;8.80;;
52940;SDS011;62001;53.366;6.636;2023-08-30T08:26:22;11.57;;;9.02;;
52940;SDS011;62001;53.366;6.636;2023-08-30T08:28:48;12.82;;;9.80;;
52940;SDS011;62001;53.366;6.636;2023-08-30T08:31:14;13.35;;;10.23;;
52940;SDS011;62001;53.366;6.636;2023-08-30T08:33:40;13.57;;;9.55;;
52940;SDS011;62001;53.366;6.636;2023-08-30T08:36:06;13.05;;;9.93;;
52940;SDS011;62001;53.366;6.636;2023-08-30T08:38:32;12.20;;;9.32;;
52940;SDS011;62001;53.366;6.636;2023-08-30T08:41:01;12.23;;;9.48;;
52940;SDS011;62001;53.366;6.636;2023-08-30T08:43:29;14.10;;;9.57;;
52940;SDS011;62001;53.366;6.636;2023-08-30T08:45:57;13.27;;;9.52;;
52940;SDS011;62001;53.366;6.636;2023-08-30T08:48:25;14.03;;;9.97;;
52940;SDS011;62001;53.366;6.636;2023-08-30T08:50:54;13.38;;;10.30;;
52940;SDS011;62001;53.366;6.636;2023-08-30T08:53:21;14.85;;;10.57;;
52940;SDS011;62001;53.366;6.636;2023-08-30T08:55:48;13.95;;;10.63;;
52940;SDS011;62001;53.366;6.636;2023-08-30T08:58:15;14.43;;;10.43;;
52940;SDS011;62001;53.366;6.636;2023-08-30T09:00:42;15.27;;;10.98;;
52940;SDS011;62001;53.366;6.636;2023-08-30T09:03:08;19.35;;;11.32;;
52940;SDS011;62001;53.366;6.636;2023-08-30T09:05:38;16.02;;;11.80;;
52940;SDS011;62001;53.366;6.636;2023-08-30T09:08:05;13.00;;;10.20;;
52940;SDS011;62001;53.366;6.636;2023-08-30T09:10:32;15.80;;;10.45;;
52940;SDS011;62001;53.366;6.636;2023-08-30T09:12:58;14.45;;;10.38;;
52940;SDS011;62001;53.366;6.636;2023-08-30T09:15:34;14.48;;;10.88;;
52940;SDS011;62001;53.366;6.636;2023-08-30T09:18:03;15.23;;;10.77;;
52940;SDS011;62001;53.366;6.636;2023-08-30T09:20:29;19.15;;;11.25;;
52940;SDS011;62001;53.366;6.636;2023-08-30T09:22:55;17.95;;;11.82;;
52940;SDS011;62001;53.366;6.636;2023-08-30T09:25:24;14.70;;;10.98;;
52940;SDS011;62001;53.366;6.636;2023-08-30T09:27:51;13.40;;;10.77;;
52940;SDS011;62001;53.366;6.636;2023-08-30T09:30:24;12.98;;;10.40;;
52940;SDS011;62001;53.366;6.636;2023-08-30T09:32:50;13.88;;;11.18;;
52940;SDS011;62001;53.366;6.636;2023-08-30T09:35:16;14.95;;;11.02;;
52940;SDS011;62001;53.366;6.636;2023-08-30T09:37:45;17.67;;;11.27;;
52940;SDS011;62001;53.366;6.636;2023-08-30T09:40:12;14.27;;;10.93;;
52940;SDS011;62001;53.366;6.636;2023-08-30T09:42:43;18.98;;;14.02;;
52940;SDS011;62001;53.366;6.636;2023-08-30T09:45:19;13.95;;;11.75;;
52940;SDS011;62001;53.366;6.636;2023-08-30T09:47:48;14.73;;;11.95;;
52940;SDS011;62001;53.366;6.636;2023-08-30T09:50:18;15.45;;;11.60;;
52940;SDS011;62001;53.366;6.636;2023-08-30T09:52:49;15.80;;;11.35;;
52940;SDS011;62001;53.366;6.636;2023-08-30T09:55:18;15.75;;;10.80;;
52940;SDS011;62001;53.366;6.636;2023-08-30T09:57:45;15.98;;;11.20;;
52940;SDS011;62001;53.366;6.636;2023-08-30T10:00:13;14.13;;;11.27;;
52940;SDS011;62001;53.366;6.636;2023-08-30T10:02:41;14.30;;;10.98;;
52940;SDS011;62001;53.366;6.636;2023-08-30T10:05:09;14.68;;;11.18;;
52940;SDS011;62001;53.366;6.636;2023-08-30T10:07:37;14.30;;;11.27;;
52940;SDS011;62001;53.366;6.636;2023-08-30T10:10:06;15.27;;;11.27;;
52940;SDS011;62001;53.366;6.636;2023-08-30T10:12:33;13.68;;;11.27;;
52940;SDS011;62001;53.366;6.636;2023-08-30T10:14:59;13.77;;;11.00;;
52940;SDS011;62001;53.366;6.636;2023-08-30T10:17:31;13.43;;;10.60;;
52940;SDS011;62001;53.366;6.636;2023-08-30T10:19:59;16.08;;;11.15;;
52940;SDS011;62001;53.366;6.636;2023-08-30T10:22:29;13.73;;;10.60;;
52940;SDS011;62001;53.366;6.636;2023-08-30T10:25:01;12.20;;;10.38;;
52940;SDS011;62001;53.366;6.636;2023-08-30T10:27:43;14.93;;;10.43;;
52940;SDS011;62001;53.366;6.636;2023-08-30T10:30:12;11.80;;;10.20;;
52940;SDS011;62001;53.366;6.636;2023-08-30T10:32:43;14.20;;;10.25;;
52940;SDS011;62001;53.366;6.636;2023-08-30T10:35:16;15.25;;;10.70;;
52940;SDS011;62001;53.366;6.636;2023-08-30T10:37:56;15.18;;;10.85;;
52940;SDS011;62001;53.366;6.636;2023-08-30T10:40:24;12.18;;;9.63;;
52940;SDS011;62001;53.366;6.636;2023-08-30T10:43:00;12.98;;;9.70;;
52940;SDS011;62001;53.366;6.636;2023-08-30T10:45:27;11.68;;;9.10;;
52940;SDS011;62001;53.366;6.636;2023-08-30T10:47:56;13.15;;;9.75;;
52940;SDS011;62001;53.366;6.636;2023-08-30T10:50:27;10.45;;;8.70;;
52940;SDS011;62001;53.366;6.636;2023-08-30T10:52:55;10.85;;;9.05;;
52940;SDS011;62001;53.366;6.636;2023-08-30T10:55:22;10.80;;;8.90;;
52940;SDS011;62001;53.366;6.636;2023-08-30T10:57:57;11.57;;;9.15;;
52940;SDS011;62001;53.366;6.636;2023-08-30T11:00:28;11.38;;;8.73;;
52940;SDS011;62001;53.366;6.636;2023-08-30T11:02:55;9.68;;;7.57;;
52940;SDS011;62001;53.366;6.636;2023-08-30T11:05:22;10.30;;;7.00;;
52940;SDS011;62001;53.366;6.636;2023-08-30T11:07:49;10.25;;;6.90;;
52940;SDS011;62001;53.366;6.636;2023-08-30T11:10:16;10.68;;;7.20;;
52940;SDS011;62001;53.366;6.636;2023-08-30T11:12:43;9.90;;;7.68;;
52940;SDS011;62001;53.366;6.636;2023-08-30T11:15:10;11.95;;;7.70;;
52940;SDS011;62001;53.366;6.636;2023-08-30T11:17:39;11.02;;;6.72;;
52940;SDS011;62001;53.366;6.636;2023-08-30T11:22:36;11.13;;;6.82;;
52940;SDS011;62001;53.366;6.636;2023-08-30T11:25:03;9.27;;;7.10;;
52940;SDS011;62001;53.366;6.636;2023-08-30T11:27:29;7.25;;;6.22;;
52940;SDS011;62001;53.366;6.636;2023-08-30T11:29:58;8.95;;;6.22;;
52940;SDS011;62001;53.366;6.636;2023-08-30T11:32:28;8.05;;;6.20;;
52940;SDS011;62001;53.366;6.636;2023-08-30T11:34:57;8.43;;;6.68;;
52940;SDS011;62001;53.366;6.636;2023-08-30T11:37:28;9.23;;;7.03;;
52940;SDS011;62001;53.366;6.636;2023-08-30T11:39:55;8.52;;;7.28;;
52940;SDS011;62001;53.366;6.636;2023-08-30T11:42:21;11.85;;;8.52;;
52940;SDS011;62001;53.366;6.636;2023-08-30T11:44:47;10.20;;;8.70;;
52940;SDS011;62001;53.366;6.636;2023-08-30T11:47:33;12.70;;;9.82;;
52940;SDS011;62001;53.366;6.636;2023-08-30T11:49:59;13.80;;;11.07;;
52940;SDS011;62001;53.366;6.636;2023-08-30T11:52:26;11.13;;;9.57;;
52940;SDS011;62001;53.366;6.636;2023-08-30T11:54:52;14.20;;;9.35;;
52940;SDS011;62001;53.366;6.636;2023-08-30T11:57:19;12.52;;;8.95;;
52940;SDS011;62001;53.366;6.636;2023-08-30T11:59:46;11.45;;;8.75;;
52940;SDS011;62001;53.366;6.636;2023-08-30T12:02:13;10.68;;;8.57;;
52940;SDS011;62001;53.366;6.636;2023-08-30T12:04:40;11.27;;;8.07;;
52940;SDS011;62001;53.366;6.636;2023-08-30T12:07:20;11.43;;;8.63;;
52940;SDS011;62001;53.366;6.636;2023-08-30T12:09:48;10.30;;;7.78;;
52940;SDS011;62001;53.366;6.636;2023-08-30T12:12:13;8.75;;;7.22;;
52940;SDS011;62001;53.366;6.636;2023-08-30T12:14:40;9.25;;;7.40;;
52940;SDS011;62001;53.366;6.636;2023-08-30T12:17:06;9.68;;;7.35;;
52940;SDS011;62001;53.366;6.636;2023-08-30T12:19:34;9.63;;;7.22;;
52940;SDS011;62001;53.366;6.636;2023-08-30T12:22:03;8.85;;;7.00;;
52940;SDS011;62001;53.366;6.636;2023-08-30T12:24:43;7.35;;;6.00;;
52940;SDS011;62001;53.366;6.636;2023-08-30T12:27:10;7.80;;;6.70;;
52940;SDS011;62001;53.366;6.636;2023-08-30T12:29:35;8.25;;;6.65;;
52940;SDS011;62001;53.366;6.636;2023-08-30T12:32:01;8.25;;;6.57;;
52940;SDS011;62001;53.366;6.636;2023-08-30T12:34:28;8.90;;;6.75;;
52940;SDS011;62001;53.366;6.636;2023-08-30T12:36:53;11.88;;;6.93;;
52940;SDS011;62001;53.366;6.636;2023-08-30T12:39:20;10.60;;;7.28;;
52940;SDS011;62001;53.366;6.636;2023-08-30T12:41:46;8.68;;;6.90;;
52940;SDS011;62001;53.366;6.636;2023-08-30T12:44:12;8.45;;;6.20;;
52940;SDS011;62001;53.366;6.636;2023-08-30T12:46:38;8.73;;;6.80;;
52940;SDS011;62001;53.366;6.636;2023-08-30T12:49:04;9.60;;;7.07;;
52940;SDS011;62001;53.366;6.636;2023-08-30T12:51:30;9.27;;;6.72;;
52940;SDS011;62001;53.366;6.636;2023-08-30T12:53:56;8.15;;;6.45;;
52940;SDS011;62001;53.366;6.636;2023-08-30T12:56:22;7.55;;;6.40;;
52940;SDS011;62001;53.366;6.636;2023-08-30T12:58:48;7.53;;;6.82;;
52940;SDS011;62001;53.366;6.636;2023-08-30T13:01:13;9.95;;;7.03;;
52940;SDS011;62001;53.366;6.636;2023-08-30T13:03:39;11.60;;;7.47;;
52940;SDS011;62001;53.366;6.636;2023-08-30T13:06:05;10.68;;;6.43;;
52940;SDS011;62001;53.366;6.636;2023-08-30T13:08:31;8.75;;;6.97;;
52940;SDS011;62001;53.366;6.636;2023-08-30T13:10:59;8.63;;;7.65;;
52940;SDS011;62001;53.366;6.636;2023-08-30T13:13:25;12.50;;;9.13;;
52940;SDS011;62001;53.366;6.636;2023-08-30T13:15:51;11.30;;;9.55;;
52940;SDS011;62001;53.366;6.636;2023-08-30T13:18:17;12.52;;;9.02;;
52940;SDS011;62001;53.366;6.636;2023-08-30T13:20:43;10.80;;;8.25;;
52940;SDS011;62001;53.366;6.636;2023-08-30T13:23:10;9.63;;;8.48;;
52940;SDS011;62001;53.366;6.636;2023-08-30T13:25:39;10.93;;;8.60;;
52940;SDS011;62001;53.366;6.636;2023-08-30T13:28:05;12.30;;;9.32;;
52940;SDS011;62001;53.366;6.636;2023-08-30T13:30:32;13.02;;;10.27;;
52940;SDS011;62001;53.366;6.636;2023-08-30T13:32:58;14.13;;;9.77;;
52940;SDS011;62001;53.366;6.636;2023-08-30T13:35:24;15.15;;;12.05;;
52940;SDS011;62001;53.366;6.636;2023-08-30T13:37:50;22.63;;;14.20;;
52940;SDS011;62001;53.366;6.636;2023-08-30T13:40:16;18.23;;;13.18;;
52940;SDS011;62001;53.366;6.636;2023-08-30T13:42:42;15.27;;;12.55;;
52940;SDS011;62001;53.366;6.636;2023-08-30T13:45:08;14.57;;;10.35;;
52940;SDS011;62001;53.366;6.636;2023-08-30T13:47:38;15.60;;;10.85;;
52940;SDS011;62001;53.366;6.636;2023-08-30T13:50:04;12.07;;;9.48;;
52940;SDS011;62001;53.366;6.636;2023-08-30T13:52:32;14.95;;;11.10;;
52940;SDS011;62001;53.366;6.636;2023-08-30T13:54:58;11.35;;;9.27;;
52940;SDS011;62001;53.366;6.636;2023-08-30T13:57:24;10.73;;;9.02;;
52940;SDS011;62001;53.366;6.636;2023-08-30T13:59:50;12.20;;;9.63;;
52940;SDS011;62001;53.366;6.636;2023-08-30T14:02:16;11.88;;;10.02;;
52940;SDS011;62001;53.366;6.636;2023-08-30T14:04:42;11.88;;;10.27;;
52940;SDS011;62001;53.366;6.636;2023-08-30T14:07:07;13.98;;;11.43;;
52940;SDS011;62001;53.366;6.636;2023-08-30T14:09:34;10.90;;;9.80;;
52940;SDS011;62001;53.366;6.636;2023-08-30T14:12:00;12.77;;;10.85;;
52940;SDS011;62001;53.366;6.636;2023-08-30T14:14:26;12.38;;;10.48;;
52940;SDS011;62001;53.366;6.636;2023-08-30T14:16:52;13.13;;;10.75;;
52940;SDS011;62001;53.366;6.636;2023-08-30T14:19:18;13.60;;;11.13;;
52940;SDS011;62001;53.366;6.636;2023-08-30T14:21:43;11.95;;;9.88;;
52940;SDS011;62001;53.366;6.636;2023-08-30T14:24:09;12.82;;;11.00;;
52940;SDS011;62001;53.366;6.636;2023-08-30T14:26:35;13.05;;;11.15;;
52940;SDS011;62001;53.366;6.636;2023-08-30T14:29:01;12.63;;;9.60;;